KHHR METAR and TAF | Updated Today

KHHR METAR

Jack Northrop Field Hawthorne Municipal Airport

Observation time: 3 min. ago

KHHR 061953Z 26008KT 5SM HZ SCT020 24/17 A3002 RMK AO2 SLP163 T02390172 $

Need help? Read our tutorial on how to read METARs or read the parsed version below.

Jack Northrop Field Hawthorne Municipal Airport (KHHR) METAR

  • Weather conditions on Thu, 06 Oct 2022 19:53:00 +0000 (3 min. ago):
  • Present conditions: Haze
  • Clouds: Scattered at 610 meters
  • Visibility: 8047 meters
  • Wind: 260 degrees at 8 knots
  • Temperature: 24 celsius
  • Dew point: 17 celsius
  • Pressure: 30.02 inHg
  • Remarks: AO2 SLP163 T02390172 $


Useful to know...

KHHR TAF

Jack Northrop Field Hawthorne Municipal Airport

TAF not found.

Airports near KHHR

KAVX Weather
Region: Avalon

Catalina Airport

Not found in our database
KBUR Weather
IATA: BUR
Region: Burbank

Bob Hope Airport

Found in our database
KCCB Weather
Region: Upland

Cable Airport

Not found in our database
KCNO Weather
Region: Chino

Chino Airport

Not found in our database
KEMT Weather
Region: El Monte

San Gabriel Valley Airport

Not found in our database
KFUL Weather
Region: Fullerton

Fullerton Municipal Airport

Not found in our database